Time;durP1;ratioP1;P1;durP2;ratioP2;P2;SDS_P1;SDS_P2;PMS_P1;PMS_P2;Temp;Humidity;BMP_temperature;BMP_pressure;BME280_temperature;BME280_humidity;BME280_pressure;Samples;Min_cycle;Max_cycle;Signal;HPM_P1;HPM_P2
2021/12/15 00:02:19;;;;;;;23.15;15.05;;;;;;;6.01;80.68;97962.53;4995455;28;20233;-77
2021/12/15 00:04:50;;;;;;;22.77;13.93;;;;;;;6.02;80.38;97958.19;4994878;28;20053;-77
2021/12/15 00:07:19;;;;;;;27.67;15.93;;;;;;;6.00;80.28;97960.88;4994649;28;20061;-77
2021/12/15 00:09:48;;;;;;;25.13;14.60;;;;;;;5.97;80.23;97961.97;4995266;28;20050;-77
2021/12/15 00:12:17;;;;;;;23.73;14.27;;;;;;;5.95;80.81;97960.44;4995058;28;20508;-77
2021/12/15 00:14:45;;;;;;;23.50;14.15;;;;;;;5.97;80.76;97956.78;4995490;28;20053;-77
2021/12/15 00:17:13;;;;;;;28.52;16.20;;;;;;;5.95;80.54;97960.44;4995483;28;20046;-77
2021/12/15 00:19:41;;;;;;;29.60;14.93;;;;;;;5.92;80.57;97955.44;4995014;28;20062;-77
2021/12/15 00:22:09;;;;;;;28.65;15.13;;;;;;;5.92;80.60;97960.63;4994525;28;20050;-77
2021/12/15 00:24:38;;;;;;;24.10;13.48;;;;;;;5.94;81.21;97956.16;4994929;28;20054;-76
2021/12/15 00:27:07;;;;;;;24.10;14.30;;;;;;;5.98;81.10;97960.19;4994626;28;20058;-77
2021/12/15 00:29:34;;;;;;;23.85;13.68;;;;;;;6.00;81.24;97966.06;4994998;28;20050;-77
2021/12/15 00:32:04;;;;;;;24.85;13.32;;;;;;;6.00;80.60;97960.06;4994940;28;20046;-76
2021/12/15 00:34:34;;;;;;;25.83;13.93;;;;;;;5.95;80.58;97963.03;4994738;28;20056;-77
2021/12/15 00:37:01;;;;;;;26.02;15.25;;;;;;;5.90;80.51;97959.91;4994699;28;20054;-77
2021/12/15 00:39:29;;;;;;;27.42;14.48;;;;;;;5.87;80.65;97960.97;4994748;28;20050;-77
2021/12/15 00:42:00;;;;;;;25.27;13.90;;;;;;;5.85;80.68;97962.03;4994470;28;20057;-77
2021/12/15 00:44:28;;;;;;;27.05;14.40;;;;;;;5.83;81.11;97963.94;4994892;28;20062;-77
2021/12/15 00:46:56;;;;;;;23.85;13.48;;;;;;;5.85;81.35;97967.22;4994367;28;20463;-77
2021/12/15 00:49:24;;;;;;;20.58;12.43;;;;;;;5.90;81.91;97965.94;4994590;28;20620;-76
2021/12/15 00:51:52;;;;;;;22.35;13.38;;;;;;;5.97;82.38;97969.72;4994251;28;20049;-76
2021/12/15 00:54:22;;;;;;;19.50;12.05;;;;;;;6.02;82.23;97964.19;4994368;28;20054;-77
2021/12/15 00:56:50;;;;;;;24.50;14.35;;;;;;;6.09;82.23;97973.13;4993789;28;20493;-76
2021/12/15 00:59:19;;;;;;;26.50;15.10;;;;;;;6.14;82.16;97978.78;4994057;28;20053;-77
2021/12/15 01:01:48;;;;;;;23.40;13.82;;;;;;;6.12;81.35;97972.03;4994091;28;20058;-77
2021/12/15 01:04:18;;;;;;;24.75;13.80;;;;;;;6.06;80.89;97975.97;4994613;28;20093;-77
2021/12/15 01:06:51;;;;;;;23.58;13.93;;;;;;;6.01;80.80;97977.25;4993955;28;20551;-77
2021/12/15 01:09:22;;;;;;;24.20;13.18;;;;;;;5.98;80.47;97976.53;4994539;28;20058;-76
2021/12/15 01:12:09;;;;;;;27.23;14.75;;;;;;;5.93;80.76;97973.47;4993865;28;20050;-77
2021/12/15 01:20:18;;;;;;;21.60;12.63;;;;;;;6.01;82.11;97969.47;4993841;28;20401;-77
2021/12/15 01:22:49;;;;;;;22.63;12.93;;;;;;;6.08;82.50;97975.81;4994249;28;20495;-77
2021/12/15 01:25:21;;;;;;;22.33;13.35;;;;;;;6.11;81.83;97973.81;4994478;28;20054;-77
2021/12/15 01:27:49;;;;;;;19.58;11.65;;;;;;;6.13;81.91;97971.94;4993558;28;20120;-76
2021/12/15 01:30:26;;;;;;;22.02;11.60;;;;;;;6.18;82.24;97977.56;4994204;28;20050;-77
2021/12/15 01:32:54;;;;;;;17.95;11.80;;;;;;;6.22;81.98;97977.34;4994013;28;20061;-77
2021/12/15 01:35:22;;;;;;;18.70;12.40;;;;;;;6.25;81.56;97977.09;4993848;28;20051;-77
2021/12/15 01:37:51;;;;;;;22.40;13.40;;;;;;;6.22;80.73;97980.75;4993457;28;20471;-77
2021/12/15 01:40:23;;;;;;;18.33;11.25;;;;;;;6.22;81.42;97983.34;5011929;28;20057;-77
2021/12/15 01:42:51;;;;;;;18.00;11.05;;;;;;;6.24;81.69;97988.41;5013497;28;20042;-77
2021/12/15 01:48:08;;;;;;;18.10;11.10;;;;;;;6.27;82.07;97983.81;4994017;28;20050;-76
2021/12/15 01:50:36;;;;;;;19.10;12.52;;;;;;;6.29;82.19;97987.09;4998414;28;20054;-77
2021/12/15 01:53:04;;;;;;;19.33;12.45;;;;;;;6.29;81.28;97981.09;5011761;28;20054;-77
2021/12/15 01:55:32;;;;;;;17.20;10.98;;;;;;;6.27;81.49;97973.44;4999198;28;20058;-77
2021/12/15 01:57:59;;;;;;;17.48;11.57;;;;;;;6.29;81.46;97975.91;4992433;28;20050;-77
2021/12/15 02:00:32;;;;;;;16.83;9.95;;;;;;;6.28;80.75;97971.69;4993871;28;20066;-77
2021/12/15 02:03:00;;;;;;;17.77;11.20;;;;;;;6.24;80.40;97972.88;4993583;28;20046;-77
2021/12/15 02:05:31;;;;;;;15.50;10.60;;;;;;;6.20;80.45;97980.06;4991952;28;20440;-77
2021/12/15 02:07:59;;;;;;;15.27;11.05;;;;;;;6.20;80.79;97982.66;4993212;28;20057;-77
2021/12/15 02:10:30;;;;;;;13.32;9.10;;;;;;;6.19;80.63;97981.81;4993360;28;20059;-77
2021/12/15 02:13:01;;;;;;;14.90;9.80;;;;;;;6.21;81.28;97984.31;4993442;28;20046;-77
2021/12/15 02:15:33;;;;;;;15.30;9.68;;;;;;;6.22;80.75;97980.75;4991766;28;20061;-77
2021/12/15 02:18:01;;;;;;;13.27;9.63;;;;;;;6.19;79.71;97975.81;4991315;28;20500;-77
2021/12/15 02:20:35;;;;;;;17.30;10.40;;;;;;;6.15;80.09;97977.81;4991657;28;20046;-77
2021/12/15 02:23:04;;;;;;;14.55;9.60;;;;;;;6.10;79.61;97974.78;4993281;28;20046;-77
2021/12/15 02:25:32;;;;;;;12.45;9.05;;;;;;;6.04;79.14;97975.25;4993204;28;20060;-77
2021/12/15 02:28:01;;;;;;;16.13;9.35;;;;;;;5.94;79.37;97966.50;4993271;28;20050;-77
2021/12/15 02:30:45;;;;;;;15.75;10.15;;;;;;;5.86;79.35;97979.22;4997291;28;20057;-77
2021/12/15 02:33:44;;;;;;;13.65;8.52;;;;;;;5.83;80.88;97979.47;4997054;28;20050;-77
2021/12/15 02:39:02;;;;;;;13.20;9.48;;;;;;;5.91;81.29;97977.13;4996123;28;20046;-77
2021/12/15 02:41:31;;;;;;;13.73;9.55;;;;;;;5.92;80.41;97976.16;4995310;28;20042;-77
2021/12/15 02:44:01;;;;;;;15.10;8.57;;;;;;;5.87;79.77;97980.88;4995252;28;20050;-77
2021/12/15 02:46:32;;;;;;;13.85;8.68;;;;;;;5.80;79.87;97974.53;4995351;28;20046;-77
2021/12/15 02:49:00;;;;;;;11.70;8.45;;;;;;;5.72;79.71;97978.50;4995583;28;20056;-77
2021/12/15 02:51:29;;;;;;;12.98;8.85;;;;;;;5.67;79.40;97972.88;4994764;28;20500;-77
2021/12/15 02:53:59;;;;;;;12.80;8.13;;;;;;;5.61;79.51;97975.09;4995467;28;20493;-77
2021/12/15 02:56:27;;;;;;;11.48;7.80;;;;;;;5.56;79.81;97973.69;4996547;28;20054;-77
2021/12/15 02:58:59;;;;;;;12.00;7.90;;;;;;;5.55;80.10;97966.03;4996681;28;20230;-77
2021/12/15 03:01:37;;;;;;;10.20;7.13;;;;;;;5.56;79.78;97972.88;4996763;28;20058;-76
2021/12/15 03:04:27;;;;;;;12.25;7.90;;;;;;;5.53;79.88;97970.50;4996457;28;20050;-76
2021/12/15 03:07:05;;;;;;;10.23;7.50;;;;;;;5.50;79.89;97978.50;4996563;28;20046;-76
2021/12/15 03:15:23;;;;;;;10.25;7.22;;;;;;;5.54;80.09;97974.75;4996339;28;20519;-77
2021/12/15 03:17:54;;;;;;;11.80;7.15;;;;;;;5.54;79.91;97974.75;4996043;28;20057;-77
2021/12/15 03:20:22;;;;;;;8.70;6.85;;;;;;;5.50;79.88;97979.31;4996442;28;20055;-76
2021/12/15 03:22:51;;;;;;;8.52;6.22;;;;;;;5.49;80.15;97976.88;4996022;28;20053;-76
2021/12/15 03:25:19;;;;;;;10.30;6.53;;;;;;;5.53;80.85;97979.09;4996188;28;20054;-77
2021/12/15 03:33:34;;;;;;;9.27;6.05;;;;;;;5.55;80.16;97978.97;4996153;28;20523;-77
2021/12/15 03:36:07;;;;;;;8.32;6.40;;;;;;;5.52;80.08;97986.97;4995910;28;20099;-76
2021/12/15 03:38:37;;;;;;;;;;;;;;;5.52;80.42;97986.97;5015561;28;20056;-77
2021/12/15 03:41:07;;;;;;;11.75;7.05;;;;;;;5.47;79.62;97989.09;5016599;28;19921;-77
2021/12/15 03:43:36;;;;;;;8.70;6.45;;;;;;;5.41;80.05;97984.38;5016717;28;20050;-77
2021/12/15 03:46:07;;;;;;;9.98;7.80;;;;;;;5.37;80.19;97983.78;4999163;28;20061;-77
2021/12/15 03:48:38;;;;;;;9.75;7.43;;;;;;;5.35;80.34;97983.88;4996078;28;20058;-77
2021/12/15 03:51:13;;;;;;;10.88;6.72;;;;;;;5.32;80.37;97984.13;4996149;28;20401;-77
2021/12/15 03:53:43;;;;;;;8.23;6.25;;;;;;;5.32;80.18;97989.28;4995854;28;20050;-77
2021/12/15 03:56:13;;;;;;;8.30;7.07;;;;;;;5.34;80.66;97990.00;4995414;28;20058;-76
2021/12/15 03:58:41;;;;;;;8.45;6.07;;;;;;;5.35;80.14;97994.22;4995648;28;20049;-77
2021/12/15 04:01:12;;;;;;;8.70;6.40;;;;;;;5.33;80.30;97990.94;4995679;28;20062;-77
2021/12/15 04:03:42;;;;;;;9.50;6.68;;;;;;;5.34;80.15;97989.19;4995675;28;20519;-77
2021/12/15 04:06:15;;;;;;;8.73;6.38;;;;;;;5.33;80.44;97993.50;4995548;28;20062;-77
2021/12/15 04:08:44;;;;;;;9.73;6.53;;;;;;;5.33;80.29;97996.09;4995604;28;20050;-77
2021/12/15 04:11:14;;;;;;;8.73;6.68;;;;;;;5.34;80.23;97997.78;4995128;28;20046;-76
2021/12/15 04:13:45;;;;;;;8.63;6.20;;;;;;;5.33;80.72;97998.69;4995575;28;20043;-77
2021/12/15 04:16:27;;;;;;;8.85;6.40;;;;;;;5.32;80.65;97991.88;4995116;28;20432;-76
2021/12/15 04:18:55;;;;;;;7.75;5.70;;;;;;;5.34;80.64;97994.38;4995170;28;20046;-77
2021/12/15 04:21:22;;;;;;;8.82;6.43;;;;;;;5.35;80.41;97989.06;4995380;28;20073;-77
2021/12/15 04:23:53;;;;;;;8.68;6.00;;;;;;;5.38;80.50;97998.38;4994975;28;20061;-76
2021/12/15 04:26:21;;;;;;;7.68;6.05;;;;;;;5.41;80.66;97995.53;4995121;28;20050;-76
2021/12/15 04:28:49;;;;;;;6.80;5.80;;;;;;;5.40;80.33;97999.09;4995100;28;20046;-77
2021/12/15 04:31:20;;;;;;;8.10;6.38;;;;;;;5.36;80.33;98005.44;4994825;28;20108;-77
2021/12/15 04:33:54;;;;;;;7.82;6.25;;;;;;;5.32;80.38;97999.66;4994911;28;20101;-77
2021/12/15 04:36:24;;;;;;;9.30;6.53;;;;;;;5.29;80.24;98010.22;4995067;28;20058;-76
2021/12/15 04:38:56;;;;;;;7.75;5.88;;;;;;;5.26;80.05;98007.84;4995190;28;20058;-76
2021/12/15 04:41:24;;;;;;;8.68;6.03;;;;;;;5.27;80.24;98017.28;5014640;23;20062;-78
2021/12/15 04:44:10;;;;;;;7.80;5.97;;;;;;;5.28;80.75;98018.91;4994664;28;20061;-78
2021/12/15 04:46:40;;;;;;;7.78;5.47;;;;;;;5.33;80.65;98011.63;4994126;28;20141;-78
2021/12/15 04:49:10;;;;;;;8.45;6.18;;;;;;;5.35;80.23;98020.09;4994752;28;20424;-78
2021/12/15 04:51:38;;;;;;;10.65;6.22;;;;;;;5.33;79.82;98019.38;4994234;28;20061;-78
2021/12/15 04:54:07;;;;;;;6.05;5.22;;;;;;;5.34;80.51;98031.41;4994400;28;20053;-78
2021/12/15 04:56:35;;;;;;;7.97;5.93;;;;;;;5.35;80.55;98016.69;4994807;28;20046;-78
2021/12/15 04:59:02;;;;;;;7.75;6.32;;;;;;;5.36;80.19;98019.19;4994391;28;20050;-78
2021/12/15 05:01:30;;;;;;;7.45;5.50;;;;;;;5.37;80.41;98025.19;4994474;28;20054;-78
2021/12/15 05:03:58;;;;;;;7.40;5.68;;;;;;;5.43;80.93;98018.72;4994649;28;20068;-78
2021/12/15 05:06:25;;;;;;;7.20;6.10;;;;;;;5.47;80.64;98020.97;4994487;28;20050;-78
2021/12/15 05:08:53;;;;;;;7.63;6.18;;;;;;;5.48;80.33;98021.78;4994573;28;20050;-78
2021/12/15 05:11:23;;;;;;;9.68;6.05;;;;;;;5.48;79.96;98037.31;4994176;28;20046;-78
2021/12/15 05:13:50;;;;;;;6.55;5.68;;;;;;;5.46;79.85;98034.84;4994046;28;20057;-78
2021/12/15 05:16:18;;;;;;;8.07;5.43;;;;;;;5.44;79.94;98036.72;4994340;28;20046;-78
2021/12/15 05:18:46;;;;;;;8.02;5.88;;;;;;;5.43;80.01;98034.25;4994700;28;20138;-78
2021/12/15 05:21:14;;;;;;;7.72;5.95;;;;;;;5.47;80.42;98027.91;4993958;28;20073;-78
2021/12/15 05:23:44;;;;;;;11.18;5.70;;;;;;;5.48;80.24;98024.38;4994470;28;20046;-78
2021/12/15 05:26:13;;;;;;;8.05;6.20;;;;;;;5.51;80.43;98026.72;4993584;28;20053;-78
2021/12/15 05:28:42;;;;;;;7.18;5.10;;;;;;;5.54;80.47;98031.69;4994080;28;20058;-78
2021/12/15 05:31:09;;;;;;;6.85;5.55;;;;;;;5.62;81.11;98031.94;4994129;28;20424;-78
2021/12/15 05:33:37;;;;;;;10.43;6.65;;;;;;;5.67;80.65;98029.00;4996653;28;20050;-78
2021/12/15 05:36:05;;;;;;;9.07;6.93;;;;;;;5.66;79.91;98032.53;4994945;28;20680;-79
2021/12/15 05:38:35;;;;;;;8.57;5.80;;;;;;;5.64;79.71;98037.00;4994565;28;20082;-79
2021/12/15 05:41:03;;;;;;;22.30;10.57;;;;;;;5.58;79.75;98043.47;4994711;28;20500;-79
2021/12/15 05:43:30;;;;;;;16.42;8.55;;;;;;;5.53;79.61;98040.38;4994460;28;20401;-78
2021/12/15 05:45:59;;;;;;;24.05;10.15;;;;;;;5.51;79.70;98037.94;4993668;28;20420;-79
2021/12/15 05:48:27;;;;;;;13.02;7.55;;;;;;;5.47;79.50;98036.50;4993725;28;20053;-78
2021/12/15 05:50:55;;;;;;;29.65;14.63;;;;;;;5.44;79.66;98041.88;4993545;28;20053;-78
2021/12/15 05:53:23;;;;;;;24.35;12.20;;;;;;;5.42;79.60;98043.75;4993647;28;20058;-78
2021/12/15 05:55:52;;;;;;;17.30;11.38;;;;;;;5.41;79.78;98049.06;4993770;28;20057;-78
2021/12/15 05:58:19;;;;;;;15.35;9.73;;;;;;;5.35;80.04;98052.94;4994235;28;20053;-78
2021/12/15 06:00:49;;;;;;;12.23;8.77;;;;;;;5.28;79.58;98057.72;4998912;28;20057;-78
2021/12/15 06:03:18;;;;;;;13.18;8.43;;;;;;;5.24;80.22;98066.66;5015706;28;20054;-78
2021/12/15 06:05:47;;;;;;;10.77;8.30;;;;;;;5.18;80.01;98064.50;5015636;28;20102;-79
2021/12/15 06:08:14;;;;;;;13.07;8.73;;;;;;;5.16;80.88;98064.63;5010983;28;20046;-78
2021/12/15 06:10:42;;;;;;;9.57;7.40;;;;;;;5.18;81.11;98067.09;5008000;28;20050;-78
2021/12/15 06:13:12;;;;;;;9.25;6.90;;;;;;;5.19;80.34;98073.94;4997908;28;20058;-78
2021/12/15 06:15:41;;;;;;;11.65;7.00;;;;;;;5.15;80.16;98070.72;4996108;28;20069;-78
2021/12/15 06:18:16;;;;;;;8.60;6.50;;;;;;;5.14;80.59;98069.09;4995165;28;20069;-78
2021/12/15 06:20:46;;;;;;;9.52;6.88;;;;;;;5.17;80.49;98075.81;4994300;28;20059;-78
2021/12/15 06:23:18;;;;;;;13.50;9.98;;;;;;;5.21;80.23;98076.41;4994270;28;20065;-78
2021/12/15 06:25:48;;;;;;;14.20;9.93;;;;;;;5.21;80.42;98077.22;4993549;28;20046;-78
2021/12/15 06:28:16;;;;;;;14.80;10.93;;;;;;;5.21;80.06;98076.41;4994194;28;20279;-78
2021/12/15 06:30:44;;;;;;;12.10;9.45;;;;;;;5.20;80.34;98085.09;4993873;28;20054;-77
2021/12/15 06:33:13;;;;;;;10.07;7.47;;;;;;;5.19;80.26;98083.47;4993587;28;20055;-78
2021/12/15 06:35:41;;;;;;;10.50;7.75;;;;;;;5.19;80.37;98079.09;4993936;28;20460;-78
2021/12/15 06:38:10;;;;;;;9.93;7.20;;;;;;;5.27;80.92;98083.69;4993229;28;20496;-78
2021/12/15 06:40:37;;;;;;;12.80;8.60;;;;;;;5.32;80.48;98090.22;4993445;28;20424;-78
2021/12/15 06:43:05;;;;;;;13.25;9.50;;;;;;;5.35;80.63;98097.72;4993214;28;20124;-78
2021/12/15 06:45:37;;;;;;;11.20;8.32;;;;;;;5.39;80.45;98089.75;4993301;28;20065;-78
2021/12/15 06:59:07;;;;;;;14.38;10.73;;;;;;;5.54;79.97;98101.56;4992713;28;20496;-79
2021/12/15 07:01:35;;;;;;;13.70;9.73;;;;;;;5.56;80.15;98092.75;4990330;28;20051;-78
2021/12/15 07:04:03;;;;;;;11.98;8.88;;;;;;;5.61;80.21;98099.34;4998885;28;20058;-78
2021/12/15 07:06:31;;;;;;;12.43;9.02;;;;;;;5.65;79.99;98106.78;4996711;28;20173;-79
2021/12/15 07:09:00;;;;;;;11.68;8.25;;;;;;;5.70;80.67;98114.19;4992037;28;20053;-78
2021/12/15 07:11:27;;;;;;;10.88;8.02;;;;;;;5.75;80.24;98117.25;4984918;28;20058;-78
2021/12/15 07:13:55;;;;;;;14.23;8.25;;;;;;;5.76;79.73;98117.16;4982619;28;20054;-79
2021/12/15 07:16:24;;;;;;;10.48;8.35;;;;;;;5.76;79.44;98116.34;4998747;28;20046;-80
2021/12/15 07:19:03;;;;;;;8.75;7.20;;;;;;;5.73;79.23;98125.16;4997058;28;20058;-78
2021/12/15 07:21:35;;;;;;;11.95;7.78;;;;;;;5.70;78.91;98122.78;4996619;28;20504;-79
2021/12/15 07:24:06;;;;;;;10.67;7.43;;;;;;;5.72;79.31;98127.88;4996663;28;20499;-79
2021/12/15 07:26:34;;;;;;;12.70;7.90;;;;;;;5.72;79.31;98128.69;4995521;28;20393;-79
2021/12/15 07:29:01;;;;;;;10.20;8.50;;;;;;;5.71;79.13;98126.22;4996138;28;20054;-78
2021/12/15 07:31:29;;;;;;;12.80;8.90;;;;;;;5.67;78.97;98130.78;4996319;28;20057;-78
2021/12/15 07:33:56;;;;;;;16.38;10.60;;;;;;;5.64;78.57;98133.63;4996681;28;20054;-77
2021/12/15 07:36:24;;;;;;;12.77;9.50;;;;;;;5.58;78.89;98132.28;4997209;28;20057;-77
2021/12/15 07:38:55;;;;;;;12.18;9.70;;;;;;;5.57;78.99;98140.16;4997777;28;20125;-79
2021/12/15 07:41:28;;;;;;;12.35;9.35;;;;;;;5.56;79.14;98138.53;4994246;28;20046;-78
2021/12/15 07:43:58;;;;;;;;;;;;;;;5.57;79.14;98145.34;4977622;28;20524;-79
2021/12/15 07:46:48;;;;;;;11.77;9.32;;;;;;;5.57;79.95;98153.97;4977810;28;19969;-78
2021/12/15 07:49:15;;;;;;;14.00;9.48;;;;;;;5.57;79.02;98147.94;4979289;28;20425;-79
2021/12/15 07:51:45;;;;;;;14.68;10.48;;;;;;;5.56;78.87;98151.47;4989854;28;20050;-79
2021/12/15 07:54:16;;;;;;;14.50;10.93;;;;;;;5.54;78.57;98150.75;4989243;28;20084;-80
2021/12/15 07:56:44;;;;;;;15.15;11.60;;;;;;;5.53;79.02;98154.25;4986441;28;20050;-79
2021/12/15 07:59:12;;;;;;;14.23;11.43;;;;;;;5.51;78.93;98156.97;4978395;28;20058;-78
2021/12/15 08:01:39;;;;;;;16.80;12.25;;;;;;;5.47;78.65;98150.38;4978536;28;20057;-78
2021/12/15 08:04:07;;;;;;;16.80;12.73;;;;;;;5.45;78.96;98162.59;4996953;28;20055;-78
2021/12/15 08:06:35;;;;;;;16.75;12.43;;;;;;;5.44;78.79;98158.34;4996489;28;20047;-78
2021/12/15 08:09:05;;;;;;;23.58;16.60;;;;;;;5.42;78.67;98161.97;4996021;28;20523;-78
2021/12/15 08:11:32;;;;;;;19.42;13.52;;;;;;;5.36;78.93;98164.09;4996433;28;20061;-78
2021/12/15 08:14:01;;;;;;;18.27;13.95;;;;;;;5.33;78.88;98163.47;4997001;28;20492;-78
2021/12/15 08:16:29;;;;;;;18.50;13.32;;;;;;;5.33;79.25;98159.13;4996217;28;20046;-77
2021/12/15 08:18:57;;;;;;;18.25;13.18;;;;;;;5.33;79.08;98159.13;4996286;28;20050;-78
2021/12/15 08:21:28;;;;;;;15.13;11.05;;;;;;;5.33;78.80;98159.13;4996482;28;20069;-78
2021/12/15 08:23:56;;;;;;;17.60;12.60;;;;;;;5.29;79.22;98162.88;4996623;28;20054;-79
2021/12/15 08:26:24;;;;;;;17.67;12.35;;;;;;;5.26;78.92;98168.25;4995623;28;20046;-78
2021/12/15 08:28:52;;;;;;;20.05;14.18;;;;;;;5.28;79.42;98171.56;4995605;28;20054;-79
2021/12/15 08:31:21;;;;;;;20.08;14.93;;;;;;;5.31;79.04;98170.53;4995460;28;20532;-78
2021/12/15 08:33:49;;;;;;;18.40;14.02;;;;;;;5.32;79.15;98167.84;4995477;28;20065;-77
2021/12/15 08:36:18;;;;;;;18.60;13.50;;;;;;;5.35;79.11;98172.78;4996402;28;20054;-79
2021/12/15 08:38:48;;;;;;;20.20;13.93;;;;;;;5.36;79.35;98171.84;4996583;28;20050;-78
2021/12/15 08:41:22;;;;;;;22.65;13.10;;;;;;;5.40;79.09;98175.06;4997102;28;20508;-78
2021/12/15 08:43:50;;;;;;;17.73;12.80;;;;;;;5.43;79.13;98171.41;4997629;28;20065;-78
2021/12/15 08:46:22;;;;;;;19.42;13.60;;;;;;;5.44;78.64;98173.06;4996852;28;20507;-79
2021/12/15 08:48:53;;;;;;;19.77;14.05;;;;;;;5.44;78.83;98175.66;4996219;28;20054;-79
2021/12/15 08:51:25;;;;;;;19.23;13.90;;;;;;;5.43;78.76;98174.81;4996641;28;20049;-78
2021/12/15 08:53:53;;;;;;;;;;;;;;;5.47;79.15;98186.59;4996716;28;20085;-78
2021/12/15 08:56:21;;;;;;;18.52;13.57;;;;;;;5.49;78.35;98186.50;4994563;28;19922;-79
2021/12/15 08:58:48;;;;;;;19.40;13.93;;;;;;;5.47;78.26;98188.38;4994875;28;20054;-78
2021/12/15 09:01:16;;;;;;;19.27;13.57;;;;;;;5.45;78.10;98192.84;4995083;28;20050;-80
2021/12/15 09:03:45;;;;;;;19.13;13.82;;;;;;;5.43;78.42;98194.72;4994803;28;20065;-80
2021/12/15 09:06:14;;;;;;;17.08;13.00;;;;;;;5.41;78.26;98192.22;4994355;28;20093;-79
2021/12/15 09:08:43;;;;;;;17.30;11.82;;;;;;;5.42;78.32;98190.44;4996192;28;20057;-80
2021/12/15 09:11:13;;;;;;;14.20;12.00;;;;;;;5.44;78.50;98194.56;4997995;28;20076;-80
2021/12/15 09:13:43;;;;;;;18.15;12.60;;;;;;;5.47;78.96;98191.78;4997191;28;20057;-80
2021/12/15 09:16:13;;;;;;;14.80;12.43;;;;;;;5.55;79.83;98189.47;4995340;28;20057;-79
2021/12/15 09:18:44;;;;;;;16.02;11.63;;;;;;;5.59;78.95;98195.25;4995664;28;20174;-81
2021/12/15 09:21:16;;;;;;;15.90;12.10;;;;;;;5.63;79.29;98201.84;4994799;28;20069;-80
2021/12/15 09:23:44;;;;;;;14.10;10.60;;;;;;;5.64;78.42;98198.34;4995168;28;20050;-79
2021/12/15 09:26:12;;;;;;;14.25;10.70;;;;;;;5.64;78.78;98192.31;4993739;28;20054;-78
2021/12/15 09:28:40;;;;;;;15.35;11.13;;;;;;;5.67;78.94;98203.28;4994311;28;20047;-79
2021/12/15 09:31:10;;;;;;;13.70;10.35;;;;;;;5.67;78.31;98202.47;4994124;28;20500;-79
2021/12/15 09:33:41;;;;;;;14.40;10.68;;;;;;;5.69;78.65;98196.22;4994197;28;20050;-80
2021/12/15 09:36:12;;;;;;;17.55;12.52;;;;;;;5.72;78.87;98200.34;4993635;28;20050;-79
2021/12/15 09:38:44;;;;;;;13.30;10.27;;;;;;;5.75;79.10;98202.72;4982557;28;20090;-80
2021/12/15 09:41:14;;;;;;;13.80;10.98;;;;;;;5.75;79.21;98200.97;4974215;28;20051;-78
2021/12/15 09:43:44;;;;;;;19.70;10.65;;;;;;;5.76;78.09;98202.59;4974235;28;20069;-79
2021/12/15 09:46:16;;;;;;;10.60;8.20;;;;;;;5.73;77.83;98192.50;4973987;28;20053;-78
2021/12/15 09:57:26;;;;;;;11.68;8.10;;;;;;;5.80;77.55;98198.03;4977163;28;20054;-78
2021/12/15 10:05:44;;;;;;;10.25;9.18;;;;;;;5.80;78.24;98197.22;4966476;28;20437;-78
2021/12/15 10:11:42;;;;;;;13.90;8.15;;;;;;;5.80;77.60;98198.03;4976369;28;20460;-78
2021/12/15 10:19:51;;;;;;;8.40;6.07;;;;;;;5.74;76.91;98182.94;4977397;28;20054;-77
2021/12/15 10:22:29;;;;;;;8.70;7.05;;;;;;;5.75;77.53;98187.19;4977672;28;20051;-77
2021/12/15 10:24:59;;;;;;;7.95;6.78;;;;;;;5.79;77.86;98191.19;4976809;28;20043;-78
2021/12/15 10:27:38;;;;;;;8.55;7.32;;;;;;;5.83;78.78;98187.44;4976600;28;20063;-77
2021/12/15 10:30:24;;;;;;;7.47;6.25;;;;;;;5.87;78.29;98182.88;5016027;28;20057;-78
2021/12/15 10:32:56;;;;;;;8.23;5.60;;;;;;;5.88;77.78;98181.94;5015687;28;20396;-78
2021/12/15 10:35:26;;;;;;;5.95;5.28;;;;;;;5.82;76.56;98177.22;5015823;28;20512;-78
2021/12/15 10:38:18;;;;;;;9.02;5.57;;;;;;;5.77;76.79;98180.97;5015871;28;20053;-78
2021/12/15 10:40:52;;;;;;;8.85;5.80;;;;;;;5.74;76.73;98177.78;5035108;28;20049;-77
2021/12/15 10:43:23;;;;;;;7.90;6.15;;;;;;;5.67;76.55;98182.56;5035824;28;20046;-76
2021/12/15 10:45:53;;;;;;;8.95;5.65;;;;;;;5.65;76.45;98175.88;5031827;28;20054;-76
2021/12/15 10:48:35;;;;;;;5.60;4.47;;;;;;;5.62;75.87;98178.66;5017761;28;20045;-76
2021/12/15 10:51:17;;;;;;;9.23;6.85;;;;;;;5.57;76.30;98173.81;5019956;28;20060;-78
2021/12/15 10:53:46;;;;;;;8.07;6.03;;;;;;;5.55;76.07;98175.69;5021414;28;20074;-77
2021/12/15 10:56:17;;;;;;;25.48;8.30;;;;;;;5.50;76.06;98182.97;5019476;28;20057;-77
2021/12/15 10:58:49;;;;;;;20.42;8.07;;;;;;;5.49;76.28;98183.91;5018841;28;20060;-77
2021/12/15 11:01:40;;;;;;;7.30;5.57;;;;;;;5.48;76.09;98177.06;5019291;28;20053;-78
2021/12/15 11:04:22;;;;;;;7.95;6.40;;;;;;;5.45;76.23;98182.47;5019276;28;20136;-77
2021/12/15 11:07:06;;;;;;;11.80;8.73;;;;;;;5.50;78.19;98177.78;5017105;28;20046;-77
2021/12/15 11:09:36;;;;;;;8.80;7.50;;;;;;;5.55;77.05;98178.28;5018371;28;20416;-77
2021/12/15 11:12:08;;;;;;;11.00;8.95;;;;;;;5.56;76.48;98182.53;5018384;28;20061;-77
2021/12/15 11:14:39;;;;;;;10.85;7.78;;;;;;;5.56;76.36;98170.41;5017236;28;20046;-76
2021/12/15 11:17:13;;;;;;;11.85;8.98;;;;;;;5.60;77.50;98171.03;5018550;28;20054;-77
2021/12/15 11:19:45;;;;;;;9.95;7.85;;;;;;;5.64;76.88;98171.59;5020414;28;20065;-76
2021/12/15 11:22:33;;;;;;;9.40;8.38;;;;;;;5.68;77.99;98168.69;5011552;28;20058;-78
2021/12/15 11:25:02;;;;;;;11.32;8.30;;;;;;;5.66;76.67;98170.56;4981255;28;20428;-77
2021/12/15 11:27:29;;;;;;;12.23;8.45;;;;;;;5.65;76.46;98166.31;4978111;28;20047;-77
2021/12/15 11:29:58;;;;;;;7.82;6.97;;;;;;;5.61;76.18;98161.47;4978535;28;20051;-77
2021/12/15 11:32:38;;;;;;;6.78;5.97;;;;;;;5.53;75.88;98159.44;4978602;28;20047;-77
2021/12/15 11:35:08;;;;;;;8.10;6.55;;;;;;;5.51;76.90;98156.97;4978077;28;20062;-77
2021/12/15 11:37:52;;;;;;;9.30;7.72;;;;;;;5.58;77.36;98159.94;4978084;28;20047;-77
2021/12/15 11:40:27;;;;;;;9.65;7.10;;;;;;;5.60;76.52;98160.66;4978594;28;20058;-76
2021/12/15 11:42:55;;;;;;;6.55;5.80;;;;;;;5.62;77.32;98158.78;4977987;28;20059;-77
2021/12/15 11:45:24;;;;;;;7.40;6.00;;;;;;;5.64;77.13;98151.75;4977781;28;20058;-77
2021/12/15 11:47:52;;;;;;;5.18;4.68;;;;;;;5.62;76.55;98148.44;4977907;28;20416;-75
2021/12/15 11:50:22;;;;;;;5.60;4.95;;;;;;;5.58;76.66;98154.78;4977894;28;20055;-78
2021/12/15 11:52:51;;;;;;;6.53;5.35;;;;;;;5.56;76.51;98154.88;4978373;28;20054;-77
2021/12/15 11:55:25;;;;;;;6.45;5.65;;;;;;;5.51;76.08;98151.81;4977595;28;20051;-76
2021/12/15 11:57:53;;;;;;;8.23;5.88;;;;;;;5.46;76.18;98158.25;4990561;28;20050;-77
2021/12/15 12:00:25;;;;;;;7.13;6.43;;;;;;;5.43;75.95;98148.13;5017082;28;20054;-77
2021/12/15 12:02:56;;;;;;;6.93;6.22;;;;;;;5.43;76.73;98153.31;5016598;28;20053;-77
2021/12/15 12:05:26;;;;;;;8.93;6.22;;;;;;;5.47;76.91;98154.72;4992451;28;20109;-77
2021/12/15 12:07:57;;;;;;;6.72;6.03;;;;;;;5.51;77.12;98151.81;4976942;28;20708;-77
2021/12/15 12:10:30;;;;;;;6.95;6.20;;;;;;;5.53;76.51;98149.09;4977360;28;20058;-77
2021/12/15 12:13:05;;;;;;;6.63;5.78;;;;;;;5.50;76.04;98149.31;4978246;28;20062;-76
2021/12/15 12:15:36;;;;;;;5.50;5.00;;;;;;;5.45;76.17;98151.44;4978493;28;20055;-76
2021/12/15 12:18:08;;;;;;;6.05;5.10;;;;;;;5.39;76.43;98147.50;4977991;28;20053;-75
2021/12/15 12:20:39;;;;;;;6.13;5.50;;;;;;;5.40;77.07;98143.16;4977438;28;20428;-77
2021/12/15 12:23:10;;;;;;;6.35;5.75;;;;;;;5.44;77.58;98147.19;4977313;28;20508;-76
2021/12/15 12:25:40;;;;;;;4.65;4.25;;;;;;;5.46;76.74;98142.72;4977730;28;20058;-77
2021/12/15 12:28:12;;;;;;;5.53;4.93;;;;;;;5.44;76.58;98140.22;4977794;28;20493;-78
2021/12/15 12:30:43;;;;;;;6.45;5.85;;;;;;;5.44;76.05;98139.41;4977874;28;20050;-77
2021/12/15 12:33:13;;;;;;;6.53;5.82;;;;;;;5.45;76.51;98135.91;4977004;28;20059;-78
2021/12/15 12:35:45;;;;;;;11.30;5.63;;;;;;;5.48;76.23;98143.44;4977070;28;20471;-78
2021/12/15 12:38:15;;;;;;;7.10;6.40;;;;;;;5.48;75.60;98140.84;4978473;28;20047;-78
2021/12/15 12:40:49;;;;;;;5.72;5.13;;;;;;;5.45;75.53;98136.72;4977336;28;20054;-77
2021/12/15 12:43:24;;;;;;;14.52;9.90;;;;;;;5.44;75.67;98139.41;5000903;28;20054;-76
2021/12/15 12:46:04;;;;;;;25.80;13.80;;;;;;;5.42;76.00;98136.09;5018215;28;20429;-77
2021/12/15 12:48:45;;;;;;;12.45;8.82;;;;;;;5.39;76.27;98126.81;5017526;28;20397;-77